<?xml version="1.0" encoding="UTF-8" standalone="no" ?>
<gpx xmlns="http://www.topografix.com/GPX/1/1" xmlns:xsi="http://www.w3.org/2001/XMLSchema-instance" xsi:schemaLocation="http://www.topografix.com/GPX/1/1 http://www.topografix.com/GPX/1/1/gpx.xsd" version="1.1" creator="VisuGPX - https://www.visugpx.com">
  <metadata>
    <name> 83 - V - Lorgues </name>
    <desc><![CDATA[ 83 - V - Lorgues pont romain 
2021-06-25-01]]></desc>
  </metadata>
  <trk>
    <name><![CDATA[Lorgues pont romain 2021-06-25-01]]></name>
    <extensions>
      <line xmlns="http://www.topografix.com/GPX/gpx_style/0/2">
        <width>4</width>
      </line>
    </extensions>
    <trkseg>
      <trkpt lat="43.50067" lon="6.37365">
        <ele>281</ele>
        <time>2021-06-25T06:28:15.000Z</time>
      </trkpt>
      <trkpt lat="43.50068" lon="6.37364">
        <ele>282</ele>
        <time>2021-06-25T06:28:22.000Z</time>
      </trkpt>
      <trkpt lat="43.50056" lon="6.37371">
        <ele>282</ele>
        <time>2021-06-25T06:29:27.000Z</time>
      </trkpt>
      <trkpt lat="43.50065" lon="6.37373">
        <ele>283</ele>
        <time>2021-06-25T06:29:36.000Z</time>
      </trkpt>
      <trkpt lat="43.50074" lon="6.37372">
        <ele>283.5</ele>
        <time>2021-06-25T06:38:36.000Z</time>
      </trkpt>
      <trkpt lat="43.50084" lon="6.37373">
        <ele>282.1</ele>
        <time>2021-06-25T06:39:00.000Z</time>
      </trkpt>
      <trkpt lat="43.50093" lon="6.37369">
        <ele>281.1</ele>
        <time>2021-06-25T06:39:12.000Z</time>
      </trkpt>
      <trkpt lat="43.50099" lon="6.37359">
        <ele>280.6</ele>
        <time>2021-06-25T06:39:23.000Z</time>
      </trkpt>
      <trkpt lat="43.50106" lon="6.37351">
        <ele>280.1</ele>
        <time>2021-06-25T06:39:33.000Z</time>
      </trkpt>
      <trkpt lat="43.50113" lon="6.3734">
        <ele>278.8</ele>
        <time>2021-06-25T06:39:42.000Z</time>
      </trkpt>
      <trkpt lat="43.50119" lon="6.37331">
        <ele>277.4</ele>
        <time>2021-06-25T06:39:52.000Z</time>
      </trkpt>
      <trkpt lat="43.50122" lon="6.37343">
        <ele>278</ele>
        <time>2021-06-25T06:40:09.000Z</time>
      </trkpt>
      <trkpt lat="43.50123" lon="6.37356">
        <ele>280.2</ele>
        <time>2021-06-25T06:40:29.000Z</time>
      </trkpt>
      <trkpt lat="43.50123" lon="6.3737">
        <ele>280.9</ele>
        <time>2021-06-25T06:40:39.000Z</time>
      </trkpt>
      <trkpt lat="43.50122" lon="6.37382">
        <ele>281.5</ele>
        <time>2021-06-25T06:40:50.000Z</time>
      </trkpt>
      <trkpt lat="43.50123" lon="6.37395">
        <ele>281.5</ele>
        <time>2021-06-25T06:40:59.000Z</time>
      </trkpt>
      <trkpt lat="43.50121" lon="6.37408">
        <ele>281.2</ele>
        <time>2021-06-25T06:41:08.000Z</time>
      </trkpt>
      <trkpt lat="43.50119" lon="6.37421">
        <ele>280.8</ele>
        <time>2021-06-25T06:41:14.000Z</time>
      </trkpt>
      <trkpt lat="43.50118" lon="6.37435">
        <ele>279.4</ele>
        <time>2021-06-25T06:41:25.000Z</time>
      </trkpt>
      <trkpt lat="43.5012" lon="6.37448">
        <ele>278.3</ele>
        <time>2021-06-25T06:41:32.000Z</time>
      </trkpt>
      <trkpt lat="43.50125" lon="6.37459">
        <ele>277.4</ele>
        <time>2021-06-25T06:41:39.000Z</time>
      </trkpt>
      <trkpt lat="43.50127" lon="6.37472">
        <ele>276</ele>
        <time>2021-06-25T06:41:47.000Z</time>
      </trkpt>
      <trkpt lat="43.50132" lon="6.37484">
        <ele>274.8</ele>
        <time>2021-06-25T06:41:54.000Z</time>
      </trkpt>
      <trkpt lat="43.50138" lon="6.37495">
        <ele>274</ele>
        <time>2021-06-25T06:42:01.000Z</time>
      </trkpt>
      <trkpt lat="43.50145" lon="6.37506">
        <ele>274.2</ele>
        <time>2021-06-25T06:42:08.000Z</time>
      </trkpt>
      <trkpt lat="43.50152" lon="6.37514">
        <ele>274.2</ele>
        <time>2021-06-25T06:42:15.000Z</time>
      </trkpt>
      <trkpt lat="43.5016" lon="6.37523">
        <ele>274.4</ele>
        <time>2021-06-25T06:42:23.000Z</time>
      </trkpt>
      <trkpt lat="43.50169" lon="6.37527">
        <ele>274.6</ele>
        <time>2021-06-25T06:42:30.000Z</time>
      </trkpt>
      <trkpt lat="43.50177" lon="6.37532">
        <ele>274.9</ele>
        <time>2021-06-25T06:42:37.000Z</time>
      </trkpt>
      <trkpt lat="43.50187" lon="6.37536">
        <ele>275.2</ele>
        <time>2021-06-25T06:42:44.000Z</time>
      </trkpt>
      <trkpt lat="43.50194" lon="6.37544">
        <ele>275.4</ele>
        <time>2021-06-25T06:42:49.000Z</time>
      </trkpt>
      <trkpt lat="43.50202" lon="6.37552">
        <ele>275.5</ele>
        <time>2021-06-25T06:42:56.000Z</time>
      </trkpt>
      <trkpt lat="43.50209" lon="6.37562">
        <ele>276.2</ele>
        <time>2021-06-25T06:43:04.000Z</time>
      </trkpt>
      <trkpt lat="43.50219" lon="6.37561">
        <ele>276.9</ele>
        <time>2021-06-25T06:43:09.000Z</time>
      </trkpt>
      <trkpt lat="43.50228" lon="6.37565">
        <ele>277.1</ele>
        <time>2021-06-25T06:43:18.000Z</time>
      </trkpt>
      <trkpt lat="43.50235" lon="6.37574">
        <ele>278.6</ele>
        <time>2021-06-25T06:43:32.000Z</time>
      </trkpt>
      <trkpt lat="43.50239" lon="6.37585">
        <ele>280.3</ele>
        <time>2021-06-25T06:43:42.000Z</time>
      </trkpt>
      <trkpt lat="43.50246" lon="6.37595">
        <ele>282.4</ele>
        <time>2021-06-25T06:43:55.000Z</time>
      </trkpt>
      <trkpt lat="43.50254" lon="6.37601">
        <ele>283.5</ele>
        <time>2021-06-25T06:44:04.000Z</time>
      </trkpt>
      <trkpt lat="43.50262" lon="6.3761">
        <ele>284.1</ele>
        <time>2021-06-25T06:44:12.000Z</time>
      </trkpt>
      <trkpt lat="43.5027" lon="6.37618">
        <ele>285.2</ele>
        <time>2021-06-25T06:44:19.000Z</time>
      </trkpt>
      <trkpt lat="43.50277" lon="6.37625">
        <ele>286.1</ele>
        <time>2021-06-25T06:44:29.000Z</time>
      </trkpt>
      <trkpt lat="43.50286" lon="6.37631">
        <ele>287.6</ele>
        <time>2021-06-25T06:44:40.000Z</time>
      </trkpt>
      <trkpt lat="43.50295" lon="6.37638">
        <ele>289</ele>
        <time>2021-06-25T06:44:50.000Z</time>
      </trkpt>
      <trkpt lat="43.50303" lon="6.37643">
        <ele>290.4</ele>
        <time>2021-06-25T06:44:59.000Z</time>
      </trkpt>
      <trkpt lat="43.5031" lon="6.37652">
        <ele>292</ele>
        <time>2021-06-25T06:45:11.000Z</time>
      </trkpt>
      <trkpt lat="43.50318" lon="6.3766">
        <ele>292.9</ele>
        <time>2021-06-25T06:45:18.000Z</time>
      </trkpt>
      <trkpt lat="43.50325" lon="6.37668">
        <ele>294.2</ele>
        <time>2021-06-25T06:45:26.000Z</time>
      </trkpt>
      <trkpt lat="43.50333" lon="6.37675">
        <ele>293.7</ele>
        <time>2021-06-25T06:45:33.000Z</time>
      </trkpt>
      <trkpt lat="43.50336" lon="6.37687">
        <ele>293.9</ele>
        <time>2021-06-25T06:45:41.000Z</time>
      </trkpt>
      <trkpt lat="43.50344" lon="6.37695">
        <ele>293.7</ele>
        <time>2021-06-25T06:45:48.000Z</time>
      </trkpt>
      <trkpt lat="43.50351" lon="6.37702">
        <ele>293.8</ele>
        <time>2021-06-25T06:45:56.000Z</time>
      </trkpt>
      <trkpt lat="43.50359" lon="6.37711">
        <ele>293.5</ele>
        <time>2021-06-25T06:46:05.000Z</time>
      </trkpt>
      <trkpt lat="43.50367" lon="6.3772">
        <ele>292.8</ele>
        <time>2021-06-25T06:46:14.000Z</time>
      </trkpt>
      <trkpt lat="43.50375" lon="6.37726">
        <ele>292.5</ele>
        <time>2021-06-25T06:46:22.000Z</time>
      </trkpt>
      <trkpt lat="43.50381" lon="6.37737">
        <ele>291.8</ele>
        <time>2021-06-25T06:46:32.000Z</time>
      </trkpt>
      <trkpt lat="43.50389" lon="6.37745">
        <ele>291.4</ele>
        <time>2021-06-25T06:46:41.000Z</time>
      </trkpt>
      <trkpt lat="43.50396" lon="6.37753">
        <ele>291.2</ele>
        <time>2021-06-25T06:46:51.000Z</time>
      </trkpt>
      <trkpt lat="43.50402" lon="6.37764">
        <ele>291.3</ele>
        <time>2021-06-25T06:46:58.000Z</time>
      </trkpt>
      <trkpt lat="43.50408" lon="6.37774">
        <ele>291.4</ele>
        <time>2021-06-25T06:47:06.000Z</time>
      </trkpt>
      <trkpt lat="43.50414" lon="6.37785">
        <ele>291.6</ele>
        <time>2021-06-25T06:47:15.000Z</time>
      </trkpt>
      <trkpt lat="43.50409" lon="6.37796">
        <ele>290.6</ele>
        <time>2021-06-25T06:47:28.000Z</time>
      </trkpt>
      <trkpt lat="43.50408" lon="6.37809">
        <ele>289.6</ele>
        <time>2021-06-25T06:47:39.000Z</time>
      </trkpt>
      <trkpt lat="43.50409" lon="6.37823">
        <ele>289</ele>
        <time>2021-06-25T06:47:47.000Z</time>
      </trkpt>
      <trkpt lat="43.50404" lon="6.37834">
        <ele>288.9</ele>
        <time>2021-06-25T06:47:55.000Z</time>
      </trkpt>
      <trkpt lat="43.50401" lon="6.37848">
        <ele>288.7</ele>
        <time>2021-06-25T06:48:03.000Z</time>
      </trkpt>
      <trkpt lat="43.50399" lon="6.37862">
        <ele>288.5</ele>
        <time>2021-06-25T06:48:10.000Z</time>
      </trkpt>
      <trkpt lat="43.504" lon="6.37875">
        <ele>288.5</ele>
        <time>2021-06-25T06:48:19.000Z</time>
      </trkpt>
      <trkpt lat="43.504" lon="6.37888">
        <ele>288.1</ele>
        <time>2021-06-25T06:48:26.000Z</time>
      </trkpt>
      <trkpt lat="43.504" lon="6.37902">
        <ele>287.2</ele>
        <time>2021-06-25T06:48:35.000Z</time>
      </trkpt>
      <trkpt lat="43.504" lon="6.37915">
        <ele>286.4</ele>
        <time>2021-06-25T06:48:43.000Z</time>
      </trkpt>
      <trkpt lat="43.504" lon="6.37929">
        <ele>286</ele>
        <time>2021-06-25T06:48:50.000Z</time>
      </trkpt>
      <trkpt lat="43.50403" lon="6.37942">
        <ele>285.3</ele>
        <time>2021-06-25T06:48:59.000Z</time>
      </trkpt>
      <trkpt lat="43.50406" lon="6.37954">
        <ele>284.2</ele>
        <time>2021-06-25T06:49:06.000Z</time>
      </trkpt>
      <trkpt lat="43.50409" lon="6.37966">
        <ele>283.1</ele>
        <time>2021-06-25T06:49:16.000Z</time>
      </trkpt>
      <trkpt lat="43.50416" lon="6.37974">
        <ele>282</ele>
        <time>2021-06-25T06:49:47.000Z</time>
      </trkpt>
      <trkpt lat="43.50416" lon="6.37988">
        <ele>280.3</ele>
        <time>2021-06-25T06:50:37.000Z</time>
      </trkpt>
      <trkpt lat="43.50422" lon="6.37998">
        <ele>279.7</ele>
        <time>2021-06-25T06:50:45.000Z</time>
      </trkpt>
      <trkpt lat="43.50431" lon="6.38006">
        <ele>278.8</ele>
        <time>2021-06-25T06:50:53.000Z</time>
      </trkpt>
      <trkpt lat="43.50434" lon="6.38018">
        <ele>278.1</ele>
        <time>2021-06-25T06:51:02.000Z</time>
      </trkpt>
      <trkpt lat="43.5044" lon="6.38029">
        <ele>276.8</ele>
        <time>2021-06-25T06:51:14.000Z</time>
      </trkpt>
      <trkpt lat="43.50448" lon="6.38037">
        <ele>275.9</ele>
        <time>2021-06-25T06:51:22.000Z</time>
      </trkpt>
      <trkpt lat="43.50457" lon="6.38043">
        <ele>275.2</ele>
        <time>2021-06-25T06:51:31.000Z</time>
      </trkpt>
      <trkpt lat="43.50466" lon="6.38048">
        <ele>274.5</ele>
        <time>2021-06-25T06:51:39.000Z</time>
      </trkpt>
      <trkpt lat="43.50473" lon="6.38055">
        <ele>272.6</ele>
        <time>2021-06-25T06:51:56.000Z</time>
      </trkpt>
      <trkpt lat="43.50481" lon="6.3806">
        <ele>271.9</ele>
        <time>2021-06-25T06:52:03.000Z</time>
      </trkpt>
      <trkpt lat="43.50482" lon="6.38073">
        <ele>269.7</ele>
        <time>2021-06-25T06:52:55.000Z</time>
      </trkpt>
      <trkpt lat="43.50478" lon="6.38085">
        <ele>268.2</ele>
        <time>2021-06-25T06:53:06.000Z</time>
      </trkpt>
      <trkpt lat="43.50477" lon="6.38097">
        <ele>266.7</ele>
        <time>2021-06-25T06:53:17.000Z</time>
      </trkpt>
      <trkpt lat="43.5047" lon="6.38108">
        <ele>264.7</ele>
        <time>2021-06-25T06:53:29.000Z</time>
      </trkpt>
      <trkpt lat="43.50464" lon="6.38118">
        <ele>264</ele>
        <time>2021-06-25T06:53:36.000Z</time>
      </trkpt>
      <trkpt lat="43.50462" lon="6.3813">
        <ele>261.7</ele>
        <time>2021-06-25T06:53:46.000Z</time>
      </trkpt>
      <trkpt lat="43.50464" lon="6.38143">
        <ele>259.7</ele>
        <time>2021-06-25T06:53:55.000Z</time>
      </trkpt>
      <trkpt lat="43.5046" lon="6.38154">
        <ele>257.5</ele>
        <time>2021-06-25T06:54:04.000Z</time>
      </trkpt>
      <trkpt lat="43.50459" lon="6.38167">
        <ele>255.5</ele>
        <time>2021-06-25T06:54:16.000Z</time>
      </trkpt>
      <trkpt lat="43.50457" lon="6.3818">
        <ele>254.4</ele>
        <time>2021-06-25T06:54:26.000Z</time>
      </trkpt>
      <trkpt lat="43.50464" lon="6.38188">
        <ele>252.8</ele>
        <time>2021-06-25T06:54:55.000Z</time>
      </trkpt>
      <trkpt lat="43.50456" lon="6.38194">
        <ele>250</ele>
        <time>2021-06-25T06:55:31.000Z</time>
      </trkpt>
      <trkpt lat="43.50447" lon="6.3819">
        <ele>250.2</ele>
        <time>2021-06-25T06:55:40.000Z</time>
      </trkpt>
      <trkpt lat="43.50439" lon="6.38184">
        <ele>250.4</ele>
        <time>2021-06-25T06:55:54.000Z</time>
      </trkpt>
      <trkpt lat="43.50429" lon="6.38185">
        <ele>250.7</ele>
        <time>2021-06-25T06:56:02.000Z</time>
      </trkpt>
      <trkpt lat="43.50421" lon="6.38193">
        <ele>250.5</ele>
        <time>2021-06-25T06:56:11.000Z</time>
      </trkpt>
      <trkpt lat="43.50416" lon="6.38203">
        <ele>249.2</ele>
        <time>2021-06-25T06:56:22.000Z</time>
      </trkpt>
      <trkpt lat="43.50407" lon="6.38208">
        <ele>247.6</ele>
        <time>2021-06-25T06:56:33.000Z</time>
      </trkpt>
      <trkpt lat="43.50404" lon="6.38221">
        <ele>246</ele>
        <time>2021-06-25T06:56:45.000Z</time>
      </trkpt>
      <trkpt lat="43.50398" lon="6.38231">
        <ele>244.3</ele>
        <time>2021-06-25T06:56:56.000Z</time>
      </trkpt>
      <trkpt lat="43.50404" lon="6.38241">
        <ele>243.4</ele>
        <time>2021-06-25T06:57:16.000Z</time>
      </trkpt>
      <trkpt lat="43.50395" lon="6.38238">
        <ele>243.6</ele>
        <time>2021-06-25T06:57:34.000Z</time>
      </trkpt>
      <trkpt lat="43.50388" lon="6.38245">
        <ele>242</ele>
        <time>2021-06-25T06:59:21.000Z</time>
      </trkpt>
      <trkpt lat="43.50382" lon="6.38255">
        <ele>240.6</ele>
        <time>2021-06-25T06:59:36.000Z</time>
      </trkpt>
      <trkpt lat="43.5038" lon="6.38268">
        <ele>239.3</ele>
        <time>2021-06-25T06:59:47.000Z</time>
      </trkpt>
      <trkpt lat="43.50388" lon="6.38273">
        <ele>238.3</ele>
        <time>2021-06-25T07:00:02.000Z</time>
      </trkpt>
      <trkpt lat="43.50399" lon="6.38273">
        <ele>238.2</ele>
        <time>2021-06-25T07:00:10.000Z</time>
      </trkpt>
      <trkpt lat="43.50408" lon="6.38274">
        <ele>237.3</ele>
        <time>2021-06-25T07:00:20.000Z</time>
      </trkpt>
      <trkpt lat="43.50418" lon="6.38275">
        <ele>236.8</ele>
        <time>2021-06-25T07:00:28.000Z</time>
      </trkpt>
      <trkpt lat="43.50428" lon="6.38275">
        <ele>236.8</ele>
        <time>2021-06-25T07:00:37.000Z</time>
      </trkpt>
      <trkpt lat="43.50437" lon="6.38277">
        <ele>236.8</ele>
        <time>2021-06-25T07:00:48.000Z</time>
      </trkpt>
      <trkpt lat="43.50446" lon="6.38279">
        <ele>236.6</ele>
        <time>2021-06-25T07:00:56.000Z</time>
      </trkpt>
      <trkpt lat="43.50446" lon="6.38292">
        <ele>236.2</ele>
        <time>2021-06-25T07:01:09.000Z</time>
      </trkpt>
      <trkpt lat="43.50448" lon="6.38305">
        <ele>236.1</ele>
        <time>2021-06-25T07:01:22.000Z</time>
      </trkpt>
      <trkpt lat="43.50451" lon="6.38317">
        <ele>236.3</ele>
        <time>2021-06-25T07:01:30.000Z</time>
      </trkpt>
      <trkpt lat="43.50458" lon="6.38328">
        <ele>236.4</ele>
        <time>2021-06-25T07:01:38.000Z</time>
      </trkpt>
      <trkpt lat="43.50463" lon="6.38339">
        <ele>235.9</ele>
        <time>2021-06-25T07:01:47.000Z</time>
      </trkpt>
      <trkpt lat="43.5047" lon="6.38348">
        <ele>235.5</ele>
        <time>2021-06-25T07:02:00.000Z</time>
      </trkpt>
      <trkpt lat="43.50475" lon="6.38358">
        <ele>235</ele>
        <time>2021-06-25T07:02:09.000Z</time>
      </trkpt>
      <trkpt lat="43.50484" lon="6.38365">
        <ele>234.7</ele>
        <time>2021-06-25T07:02:18.000Z</time>
      </trkpt>
      <trkpt lat="43.50489" lon="6.38375">
        <ele>234.3</ele>
        <time>2021-06-25T07:02:28.000Z</time>
      </trkpt>
      <trkpt lat="43.50496" lon="6.38385">
        <ele>233.8</ele>
        <time>2021-06-25T07:02:40.000Z</time>
      </trkpt>
      <trkpt lat="43.50501" lon="6.38396">
        <ele>233.3</ele>
        <time>2021-06-25T07:02:52.000Z</time>
      </trkpt>
      <trkpt lat="43.50507" lon="6.38406">
        <ele>232.6</ele>
        <time>2021-06-25T07:03:04.000Z</time>
      </trkpt>
      <trkpt lat="43.50512" lon="6.38416">
        <ele>232</ele>
        <time>2021-06-25T07:03:15.000Z</time>
      </trkpt>
      <trkpt lat="43.50519" lon="6.38424">
        <ele>231.3</ele>
        <time>2021-06-25T07:03:24.000Z</time>
      </trkpt>
      <trkpt lat="43.50522" lon="6.38437">
        <ele>229.6</ele>
        <time>2021-06-25T07:03:33.000Z</time>
      </trkpt>
      <trkpt lat="43.50525" lon="6.38449">
        <ele>228.4</ele>
        <time>2021-06-25T07:03:42.000Z</time>
      </trkpt>
      <trkpt lat="43.50525" lon="6.38461">
        <ele>227</ele>
        <time>2021-06-25T07:03:52.000Z</time>
      </trkpt>
      <trkpt lat="43.50529" lon="6.38473">
        <ele>225.6</ele>
        <time>2021-06-25T07:04:04.000Z</time>
      </trkpt>
      <trkpt lat="43.5053" lon="6.38486">
        <ele>224.5</ele>
        <time>2021-06-25T07:04:13.000Z</time>
      </trkpt>
      <trkpt lat="43.50533" lon="6.38498">
        <ele>223.4</ele>
        <time>2021-06-25T07:04:26.000Z</time>
      </trkpt>
      <trkpt lat="43.50536" lon="6.38511">
        <ele>222.4</ele>
        <time>2021-06-25T07:04:37.000Z</time>
      </trkpt>
      <trkpt lat="43.50544" lon="6.38517">
        <ele>221.8</ele>
        <time>2021-06-25T07:04:45.000Z</time>
      </trkpt>
      <trkpt lat="43.50543" lon="6.3853">
        <ele>221</ele>
        <time>2021-06-25T07:04:55.000Z</time>
      </trkpt>
      <trkpt lat="43.50544" lon="6.38544">
        <ele>219.4</ele>
        <time>2021-06-25T07:05:07.000Z</time>
      </trkpt>
      <trkpt lat="43.50543" lon="6.38557">
        <ele>218.4</ele>
        <time>2021-06-25T07:05:15.000Z</time>
      </trkpt>
      <trkpt lat="43.50548" lon="6.38568">
        <ele>217.5</ele>
        <time>2021-06-25T07:05:24.000Z</time>
      </trkpt>
      <trkpt lat="43.50547" lon="6.38581">
        <ele>216.9</ele>
        <time>2021-06-25T07:05:31.000Z</time>
      </trkpt>
      <trkpt lat="43.5055" lon="6.38594">
        <ele>215.8</ele>
        <time>2021-06-25T07:05:42.000Z</time>
      </trkpt>
      <trkpt lat="43.50555" lon="6.38605">
        <ele>215.1</ele>
        <time>2021-06-25T07:05:51.000Z</time>
      </trkpt>
      <trkpt lat="43.50558" lon="6.38618">
        <ele>214.1</ele>
        <time>2021-06-25T07:05:59.000Z</time>
      </trkpt>
      <trkpt lat="43.50557" lon="6.3863">
        <ele>213.2</ele>
        <time>2021-06-25T07:06:06.000Z</time>
      </trkpt>
      <trkpt lat="43.50559" lon="6.38645">
        <ele>211.9</ele>
        <time>2021-06-25T07:06:18.000Z</time>
      </trkpt>
      <trkpt lat="43.50566" lon="6.38654">
        <ele>211</ele>
        <time>2021-06-25T07:06:25.000Z</time>
      </trkpt>
      <trkpt lat="43.50575" lon="6.38659">
        <ele>210.2</ele>
        <time>2021-06-25T07:06:31.000Z</time>
      </trkpt>
      <trkpt lat="43.50578" lon="6.38671">
        <ele>209.4</ele>
        <time>2021-06-25T07:06:41.000Z</time>
      </trkpt>
      <trkpt lat="43.50583" lon="6.38681">
        <ele>207.8</ele>
        <time>2021-06-25T07:06:54.000Z</time>
      </trkpt>
      <trkpt lat="43.50591" lon="6.38688">
        <ele>206.3</ele>
        <time>2021-06-25T07:07:07.000Z</time>
      </trkpt>
      <trkpt lat="43.50583" lon="6.38693">
        <ele>205</ele>
        <time>2021-06-25T07:07:27.000Z</time>
      </trkpt>
      <trkpt lat="43.50574" lon="6.38694">
        <ele>204.7</ele>
        <time>2021-06-25T07:07:45.000Z</time>
      </trkpt>
      <trkpt lat="43.50564" lon="6.38694">
        <ele>204.3</ele>
        <time>2021-06-25T07:07:55.000Z</time>
      </trkpt>
      <trkpt lat="43.50555" lon="6.38691">
        <ele>204.3</ele>
        <time>2021-06-25T07:08:06.000Z</time>
      </trkpt>
      <trkpt lat="43.50547" lon="6.38683">
        <ele>204</ele>
        <time>2021-06-25T07:08:19.000Z</time>
      </trkpt>
      <trkpt lat="43.50538" lon="6.38677">
        <ele>203.1</ele>
        <time>2021-06-25T07:08:32.000Z</time>
      </trkpt>
      <trkpt lat="43.50529" lon="6.38678">
        <ele>202.7</ele>
        <time>2021-06-25T07:08:38.000Z</time>
      </trkpt>
      <trkpt lat="43.50519" lon="6.38681">
        <ele>201.4</ele>
        <time>2021-06-25T07:08:49.000Z</time>
      </trkpt>
      <trkpt lat="43.50511" lon="6.38688">
        <ele>200.7</ele>
        <time>2021-06-25T07:09:00.000Z</time>
      </trkpt>
      <trkpt lat="43.50502" lon="6.38693">
        <ele>200.4</ele>
        <time>2021-06-25T07:09:08.000Z</time>
      </trkpt>
      <trkpt lat="43.50498" lon="6.38705">
        <ele>200.1</ele>
        <time>2021-06-25T07:09:19.000Z</time>
      </trkpt>
      <trkpt lat="43.50491" lon="6.38715">
        <ele>200</ele>
        <time>2021-06-25T07:09:26.000Z</time>
      </trkpt>
      <trkpt lat="43.50485" lon="6.38725">
        <ele>199.6</ele>
        <time>2021-06-25T07:09:36.000Z</time>
      </trkpt>
      <trkpt lat="43.5048" lon="6.38736">
        <ele>200.3</ele>
        <time>2021-06-25T07:09:52.000Z</time>
      </trkpt>
      <trkpt lat="43.50471" lon="6.38742">
        <ele>199.7</ele>
        <time>2021-06-25T07:09:59.000Z</time>
      </trkpt>
      <trkpt lat="43.50464" lon="6.38752">
        <ele>199</ele>
        <time>2021-06-25T07:10:09.000Z</time>
      </trkpt>
      <trkpt lat="43.50456" lon="6.38758">
        <ele>199.1</ele>
        <time>2021-06-25T07:10:24.000Z</time>
      </trkpt>
      <trkpt lat="43.50446" lon="6.38762">
        <ele>199.2</ele>
        <time>2021-06-25T07:10:36.000Z</time>
      </trkpt>
      <trkpt lat="43.50438" lon="6.38767">
        <ele>200.3</ele>
        <time>2021-06-25T07:10:49.000Z</time>
      </trkpt>
      <trkpt lat="43.50429" lon="6.38769">
        <ele>200.6</ele>
        <time>2021-06-25T07:11:02.000Z</time>
      </trkpt>
      <trkpt lat="43.5042" lon="6.38772">
        <ele>200.7</ele>
        <time>2021-06-25T07:11:14.000Z</time>
      </trkpt>
      <trkpt lat="43.50411" lon="6.38774">
        <ele>201.4</ele>
        <time>2021-06-25T07:11:25.000Z</time>
      </trkpt>
      <trkpt lat="43.50402" lon="6.38776">
        <ele>202</ele>
        <time>2021-06-25T07:11:40.000Z</time>
      </trkpt>
      <trkpt lat="43.50393" lon="6.38774">
        <ele>202.4</ele>
        <time>2021-06-25T07:11:51.000Z</time>
      </trkpt>
      <trkpt lat="43.50383" lon="6.38778">
        <ele>202.4</ele>
        <time>2021-06-25T07:12:00.000Z</time>
      </trkpt>
      <trkpt lat="43.50375" lon="6.38785">
        <ele>202</ele>
        <time>2021-06-25T07:12:12.000Z</time>
      </trkpt>
      <trkpt lat="43.50367" lon="6.38789">
        <ele>201.8</ele>
        <time>2021-06-25T07:12:41.000Z</time>
      </trkpt>
      <trkpt lat="43.50356" lon="6.38794">
        <ele>201.8</ele>
        <time>2021-06-25T07:13:23.000Z</time>
      </trkpt>
      <trkpt lat="43.50344" lon="6.38794">
        <ele>201.2</ele>
        <time>2021-06-25T07:13:55.000Z</time>
      </trkpt>
      <trkpt lat="43.50344" lon="6.38806">
        <ele>201.3</ele>
        <time>2021-06-25T07:15:19.000Z</time>
      </trkpt>
      <trkpt lat="43.50341" lon="6.38819">
        <ele>199.8</ele>
        <time>2021-06-25T07:15:32.000Z</time>
      </trkpt>
      <trkpt lat="43.50341" lon="6.38831">
        <ele>198.8</ele>
        <time>2021-06-25T07:15:40.000Z</time>
      </trkpt>
      <trkpt lat="43.50337" lon="6.38844">
        <ele>197.8</ele>
        <time>2021-06-25T07:16:06.000Z</time>
      </trkpt>
      <trkpt lat="43.50327" lon="6.38848">
        <ele>197.1</ele>
        <time>2021-06-25T07:16:20.000Z</time>
      </trkpt>
      <trkpt lat="43.5032" lon="6.38856">
        <ele>196.5</ele>
        <time>2021-06-25T07:16:52.000Z</time>
      </trkpt>
      <trkpt lat="43.50321" lon="6.3887">
        <ele>194.5</ele>
        <time>2021-06-25T07:17:58.000Z</time>
      </trkpt>
      <trkpt lat="43.50319" lon="6.38883">
        <ele>194</ele>
        <time>2021-06-25T07:18:03.000Z</time>
      </trkpt>
      <trkpt lat="43.50319" lon="6.38896">
        <ele>194</ele>
        <time>2021-06-25T07:18:08.000Z</time>
      </trkpt>
      <trkpt lat="43.50318" lon="6.38909">
        <ele>193.8</ele>
        <time>2021-06-25T07:18:14.000Z</time>
      </trkpt>
      <trkpt lat="43.50317" lon="6.38922">
        <ele>193.8</ele>
        <time>2021-06-25T07:18:21.000Z</time>
      </trkpt>
      <trkpt lat="43.50315" lon="6.38935">
        <ele>193.7</ele>
        <time>2021-06-25T07:18:30.000Z</time>
      </trkpt>
      <trkpt lat="43.50314" lon="6.38948">
        <ele>193.8</ele>
        <time>2021-06-25T07:18:41.000Z</time>
      </trkpt>
      <trkpt lat="43.50305" lon="6.38951">
        <ele>193.7</ele>
        <time>2021-06-25T07:18:54.000Z</time>
      </trkpt>
      <trkpt lat="43.50295" lon="6.38955">
        <ele>193.6</ele>
        <time>2021-06-25T07:19:01.000Z</time>
      </trkpt>
      <trkpt lat="43.50286" lon="6.38952">
        <ele>192.4</ele>
        <time>2021-06-25T07:19:13.000Z</time>
      </trkpt>
      <trkpt lat="43.50277" lon="6.38956">
        <ele>192.1</ele>
        <time>2021-06-25T07:19:21.000Z</time>
      </trkpt>
      <trkpt lat="43.50268" lon="6.38961">
        <ele>191.7</ele>
        <time>2021-06-25T07:19:29.000Z</time>
      </trkpt>
      <trkpt lat="43.50258" lon="6.38964">
        <ele>191.3</ele>
        <time>2021-06-25T07:19:38.000Z</time>
      </trkpt>
      <trkpt lat="43.50253" lon="6.38976">
        <ele>191.3</ele>
        <time>2021-06-25T07:19:47.000Z</time>
      </trkpt>
      <trkpt lat="43.50252" lon="6.38989">
        <ele>191.8</ele>
        <time>2021-06-25T07:19:56.000Z</time>
      </trkpt>
      <trkpt lat="43.5025" lon="6.39002">
        <ele>192.1</ele>
        <time>2021-06-25T07:20:04.000Z</time>
      </trkpt>
      <trkpt lat="43.50248" lon="6.39015">
        <ele>192.4</ele>
        <time>2021-06-25T07:20:14.000Z</time>
      </trkpt>
      <trkpt lat="43.50241" lon="6.39023">
        <ele>192.2</ele>
        <time>2021-06-25T07:20:24.000Z</time>
      </trkpt>
      <trkpt lat="43.50232" lon="6.39028">
        <ele>192.6</ele>
        <time>2021-06-25T07:20:34.000Z</time>
      </trkpt>
      <trkpt lat="43.50224" lon="6.39036">
        <ele>192.7</ele>
        <time>2021-06-25T07:20:43.000Z</time>
      </trkpt>
      <trkpt lat="43.50218" lon="6.39046">
        <ele>193.6</ele>
        <time>2021-06-25T07:20:51.000Z</time>
      </trkpt>
      <trkpt lat="43.50209" lon="6.39053">
        <ele>193.7</ele>
        <time>2021-06-25T07:20:59.000Z</time>
      </trkpt>
      <trkpt lat="43.50202" lon="6.39061">
        <ele>193.7</ele>
        <time>2021-06-25T07:21:09.000Z</time>
      </trkpt>
      <trkpt lat="43.50193" lon="6.39063">
        <ele>193.7</ele>
        <time>2021-06-25T07:21:19.000Z</time>
      </trkpt>
      <trkpt lat="43.50184" lon="6.39067">
        <ele>193.9</ele>
        <time>2021-06-25T07:21:31.000Z</time>
      </trkpt>
      <trkpt lat="43.50178" lon="6.39077">
        <ele>194.2</ele>
        <time>2021-06-25T07:21:49.000Z</time>
      </trkpt>
      <trkpt lat="43.50186" lon="6.39084">
        <ele>195.1</ele>
        <time>2021-06-25T07:22:10.000Z</time>
      </trkpt>
      <trkpt lat="43.5019" lon="6.39095">
        <ele>195.5</ele>
        <time>2021-06-25T07:22:20.000Z</time>
      </trkpt>
      <trkpt lat="43.50193" lon="6.39108">
        <ele>196.6</ele>
        <time>2021-06-25T07:22:33.000Z</time>
      </trkpt>
      <trkpt lat="43.50194" lon="6.39121">
        <ele>197.9</ele>
        <time>2021-06-25T07:22:45.000Z</time>
      </trkpt>
      <trkpt lat="43.50199" lon="6.39132">
        <ele>199.4</ele>
        <time>2021-06-25T07:22:59.000Z</time>
      </trkpt>
      <trkpt lat="43.50205" lon="6.39141">
        <ele>200.5</ele>
        <time>2021-06-25T07:23:10.000Z</time>
      </trkpt>
      <trkpt lat="43.50211" lon="6.39151">
        <ele>201.6</ele>
        <time>2021-06-25T07:23:21.000Z</time>
      </trkpt>
      <trkpt lat="43.50217" lon="6.39161">
        <ele>202.1</ele>
        <time>2021-06-25T07:23:31.000Z</time>
      </trkpt>
      <trkpt lat="43.50225" lon="6.39169">
        <ele>203.3</ele>
        <time>2021-06-25T07:23:41.000Z</time>
      </trkpt>
      <trkpt lat="43.50231" lon="6.39179">
        <ele>204.7</ele>
        <time>2021-06-25T07:23:52.000Z</time>
      </trkpt>
      <trkpt lat="43.50236" lon="6.39189">
        <ele>206.3</ele>
        <time>2021-06-25T07:24:08.000Z</time>
      </trkpt>
      <trkpt lat="43.50241" lon="6.39201">
        <ele>207.4</ele>
        <time>2021-06-25T07:24:21.000Z</time>
      </trkpt>
      <trkpt lat="43.50246" lon="6.39211">
        <ele>208.8</ele>
        <time>2021-06-25T07:24:32.000Z</time>
      </trkpt>
      <trkpt lat="43.50251" lon="6.39222">
        <ele>210.2</ele>
        <time>2021-06-25T07:24:44.000Z</time>
      </trkpt>
      <trkpt lat="43.50255" lon="6.39234">
        <ele>211.3</ele>
        <time>2021-06-25T07:24:55.000Z</time>
      </trkpt>
      <trkpt lat="43.50257" lon="6.39247">
        <ele>211.8</ele>
        <time>2021-06-25T07:25:06.000Z</time>
      </trkpt>
      <trkpt lat="43.50253" lon="6.39259">
        <ele>212.6</ele>
        <time>2021-06-25T07:25:20.000Z</time>
      </trkpt>
      <trkpt lat="43.50252" lon="6.39271">
        <ele>212.8</ele>
        <time>2021-06-25T07:25:30.000Z</time>
      </trkpt>
      <trkpt lat="43.5025" lon="6.39284">
        <ele>213.8</ele>
        <time>2021-06-25T07:25:43.000Z</time>
      </trkpt>
      <trkpt lat="43.50247" lon="6.39297">
        <ele>214.7</ele>
        <time>2021-06-25T07:25:53.000Z</time>
      </trkpt>
      <trkpt lat="43.50245" lon="6.39309">
        <ele>215.9</ele>
        <time>2021-06-25T07:26:05.000Z</time>
      </trkpt>
      <trkpt lat="43.50244" lon="6.39323">
        <ele>216.9</ele>
        <time>2021-06-25T07:26:18.000Z</time>
      </trkpt>
      <trkpt lat="43.50245" lon="6.39335">
        <ele>217.6</ele>
        <time>2021-06-25T07:26:28.000Z</time>
      </trkpt>
      <trkpt lat="43.50245" lon="6.39349">
        <ele>218.9</ele>
        <time>2021-06-25T07:26:40.000Z</time>
      </trkpt>
      <trkpt lat="43.50245" lon="6.39361">
        <ele>219.4</ele>
        <time>2021-06-25T07:26:52.000Z</time>
      </trkpt>
      <trkpt lat="43.50248" lon="6.39372">
        <ele>220.2</ele>
        <time>2021-06-25T07:27:02.000Z</time>
      </trkpt>
      <trkpt lat="43.50255" lon="6.39381">
        <ele>220.7</ele>
        <time>2021-06-25T07:27:16.000Z</time>
      </trkpt>
      <trkpt lat="43.5026" lon="6.39392">
        <ele>221.2</ele>
        <time>2021-06-25T07:27:28.000Z</time>
      </trkpt>
      <trkpt lat="43.50266" lon="6.39402">
        <ele>221.3</ele>
        <time>2021-06-25T07:27:39.000Z</time>
      </trkpt>
      <trkpt lat="43.50268" lon="6.39415">
        <ele>221.8</ele>
        <time>2021-06-25T07:27:50.000Z</time>
      </trkpt>
      <trkpt lat="43.50273" lon="6.39427">
        <ele>223</ele>
        <time>2021-06-25T07:28:01.000Z</time>
      </trkpt>
      <trkpt lat="43.50278" lon="6.39437">
        <ele>223.7</ele>
        <time>2021-06-25T07:28:13.000Z</time>
      </trkpt>
      <trkpt lat="43.50282" lon="6.39448">
        <ele>223.9</ele>
        <time>2021-06-25T07:28:23.000Z</time>
      </trkpt>
      <trkpt lat="43.50287" lon="6.3946">
        <ele>224.4</ele>
        <time>2021-06-25T07:28:34.000Z</time>
      </trkpt>
      <trkpt lat="43.50287" lon="6.39473">
        <ele>223.6</ele>
        <time>2021-06-25T07:28:46.000Z</time>
      </trkpt>
      <trkpt lat="43.50283" lon="6.39485">
        <ele>223.7</ele>
        <time>2021-06-25T07:28:57.000Z</time>
      </trkpt>
      <trkpt lat="43.50282" lon="6.39498">
        <ele>223.8</ele>
        <time>2021-06-25T07:29:07.000Z</time>
      </trkpt>
      <trkpt lat="43.50283" lon="6.39511">
        <ele>223.9</ele>
        <time>2021-06-25T07:29:19.000Z</time>
      </trkpt>
      <trkpt lat="43.50281" lon="6.39524">
        <ele>224.8</ele>
        <time>2021-06-25T07:29:30.000Z</time>
      </trkpt>
      <trkpt lat="43.50281" lon="6.39537">
        <ele>224.7</ele>
        <time>2021-06-25T07:29:41.000Z</time>
      </trkpt>
      <trkpt lat="43.50279" lon="6.39549">
        <ele>223.8</ele>
        <time>2021-06-25T07:30:05.000Z</time>
      </trkpt>
      <trkpt lat="43.5028" lon="6.39563">
        <ele>221.9</ele>
        <time>2021-06-25T07:30:24.000Z</time>
      </trkpt>
      <trkpt lat="43.50279" lon="6.39577">
        <ele>220.7</ele>
        <time>2021-06-25T07:30:36.000Z</time>
      </trkpt>
      <trkpt lat="43.50278" lon="6.39589">
        <ele>219.1</ele>
        <time>2021-06-25T07:30:48.000Z</time>
      </trkpt>
      <trkpt lat="43.50274" lon="6.39601">
        <ele>217.4</ele>
        <time>2021-06-25T07:31:00.000Z</time>
      </trkpt>
      <trkpt lat="43.50272" lon="6.39613">
        <ele>215.4</ele>
        <time>2021-06-25T07:31:17.000Z</time>
      </trkpt>
      <trkpt lat="43.50269" lon="6.39627">
        <ele>213.9</ele>
        <time>2021-06-25T07:31:26.000Z</time>
      </trkpt>
      <trkpt lat="43.50268" lon="6.39639">
        <ele>213</ele>
        <time>2021-06-25T07:31:42.000Z</time>
      </trkpt>
      <trkpt lat="43.50271" lon="6.39652">
        <ele>212.7</ele>
        <time>2021-06-25T07:31:50.000Z</time>
      </trkpt>
      <trkpt lat="43.50274" lon="6.39663">
        <ele>212</ele>
        <time>2021-06-25T07:31:59.000Z</time>
      </trkpt>
      <trkpt lat="43.50272" lon="6.39676">
        <ele>212</ele>
        <time>2021-06-25T07:32:11.000Z</time>
      </trkpt>
      <trkpt lat="43.50268" lon="6.39688">
        <ele>213.2</ele>
        <time>2021-06-25T07:32:22.000Z</time>
      </trkpt>
      <trkpt lat="43.50266" lon="6.397">
        <ele>214.1</ele>
        <time>2021-06-25T07:32:34.000Z</time>
      </trkpt>
      <trkpt lat="43.50267" lon="6.39713">
        <ele>212.9</ele>
        <time>2021-06-25T07:33:39.000Z</time>
      </trkpt>
      <trkpt lat="43.50273" lon="6.39723">
        <ele>212.7</ele>
        <time>2021-06-25T07:34:02.000Z</time>
      </trkpt>
      <trkpt lat="43.50282" lon="6.39726">
        <ele>212.9</ele>
        <time>2021-06-25T07:34:15.000Z</time>
      </trkpt>
      <trkpt lat="43.50286" lon="6.39737">
        <ele>212</ele>
        <time>2021-06-25T07:34:29.000Z</time>
      </trkpt>
      <trkpt lat="43.50292" lon="6.39747">
        <ele>211.7</ele>
        <time>2021-06-25T07:35:06.000Z</time>
      </trkpt>
      <trkpt lat="43.50288" lon="6.39735">
        <ele>212.3</ele>
        <time>2021-06-25T07:38:03.000Z</time>
      </trkpt>
      <trkpt lat="43.50282" lon="6.39726">
        <ele>212.5</ele>
        <time>2021-06-25T07:38:11.000Z</time>
      </trkpt>
      <trkpt lat="43.50273" lon="6.39724">
        <ele>212.8</ele>
        <time>2021-06-25T07:38:28.000Z</time>
      </trkpt>
      <trkpt lat="43.50266" lon="6.39733">
        <ele>213.3</ele>
        <time>2021-06-25T07:38:47.000Z</time>
      </trkpt>
      <trkpt lat="43.50265" lon="6.39745">
        <ele>214</ele>
        <time>2021-06-25T07:39:40.000Z</time>
      </trkpt>
      <trkpt lat="43.50263" lon="6.39757">
        <ele>213.5</ele>
        <time>2021-06-25T07:39:56.000Z</time>
      </trkpt>
      <trkpt lat="43.50253" lon="6.39758">
        <ele>212.3</ele>
        <time>2021-06-25T07:40:25.000Z</time>
      </trkpt>
      <trkpt lat="43.50252" lon="6.39771">
        <ele>211</ele>
        <time>2021-06-25T07:40:58.000Z</time>
      </trkpt>
      <trkpt lat="43.50256" lon="6.39782">
        <ele>210.6</ele>
        <time>2021-06-25T07:41:11.000Z</time>
      </trkpt>
      <trkpt lat="43.50254" lon="6.39795">
        <ele>207.8</ele>
        <time>2021-06-25T07:41:37.000Z</time>
      </trkpt>
      <trkpt lat="43.50248" lon="6.39805">
        <ele>205.3</ele>
        <time>2021-06-25T07:42:12.000Z</time>
      </trkpt>
      <trkpt lat="43.5024" lon="6.39811">
        <ele>203.1</ele>
        <time>2021-06-25T07:42:44.000Z</time>
      </trkpt>
      <trkpt lat="43.50234" lon="6.3982">
        <ele>200.5</ele>
        <time>2021-06-25T07:43:09.000Z</time>
      </trkpt>
      <trkpt lat="43.50233" lon="6.39833">
        <ele>198</ele>
        <time>2021-06-25T07:43:32.000Z</time>
      </trkpt>
      <trkpt lat="43.5023" lon="6.39845">
        <ele>195.7</ele>
        <time>2021-06-25T07:43:46.000Z</time>
      </trkpt>
      <trkpt lat="43.50225" lon="6.39855">
        <ele>193.1</ele>
        <time>2021-06-25T07:44:04.000Z</time>
      </trkpt>
      <trkpt lat="43.50221" lon="6.39867">
        <ele>191.2</ele>
        <time>2021-06-25T07:44:21.000Z</time>
      </trkpt>
      <trkpt lat="43.50219" lon="6.3988">
        <ele>188.5</ele>
        <time>2021-06-25T07:45:05.000Z</time>
      </trkpt>
      <trkpt lat="43.50225" lon="6.39889">
        <ele>185.9</ele>
        <time>2021-06-25T07:45:26.000Z</time>
      </trkpt>
      <trkpt lat="43.50232" lon="6.39898">
        <ele>183.4</ele>
        <time>2021-06-25T07:46:25.000Z</time>
      </trkpt>
      <trkpt lat="43.50239" lon="6.39907">
        <ele>179.8</ele>
        <time>2021-06-25T07:47:04.000Z</time>
      </trkpt>
      <trkpt lat="43.50248" lon="6.39908">
        <ele>177.2</ele>
        <time>2021-06-25T07:47:20.000Z</time>
      </trkpt>
      <trkpt lat="43.5025" lon="6.3992">
        <ele>174.1</ele>
        <time>2021-06-25T07:47:44.000Z</time>
      </trkpt>
      <trkpt lat="43.50252" lon="6.39933">
        <ele>171</ele>
        <time>2021-06-25T07:48:07.000Z</time>
      </trkpt>
      <trkpt lat="43.5026" lon="6.39941">
        <ele>169.5</ele>
        <time>2021-06-25T07:48:24.000Z</time>
      </trkpt>
      <trkpt lat="43.50267" lon="6.39949">
        <ele>167.2</ele>
        <time>2021-06-25T07:48:35.000Z</time>
      </trkpt>
      <trkpt lat="43.50274" lon="6.39956">
        <ele>164.7</ele>
        <time>2021-06-25T07:49:24.000Z</time>
      </trkpt>
      <trkpt lat="43.50269" lon="6.39966">
        <ele>163.9</ele>
        <time>2021-06-25T07:50:01.000Z</time>
      </trkpt>
      <trkpt lat="43.50269" lon="6.39979">
        <ele>162.2</ele>
        <time>2021-06-25T07:50:20.000Z</time>
      </trkpt>
      <trkpt lat="43.50268" lon="6.39992">
        <ele>160.8</ele>
        <time>2021-06-25T07:50:33.000Z</time>
      </trkpt>
      <trkpt lat="43.50276" lon="6.39999">
        <ele>159.7</ele>
        <time>2021-06-25T07:50:44.000Z</time>
      </trkpt>
      <trkpt lat="43.50284" lon="6.40005">
        <ele>158.3</ele>
        <time>2021-06-25T07:50:54.000Z</time>
      </trkpt>
      <trkpt lat="43.50292" lon="6.40014">
        <ele>158.1</ele>
        <time>2021-06-25T07:51:06.000Z</time>
      </trkpt>
      <trkpt lat="43.50299" lon="6.40022">
        <ele>157.4</ele>
        <time>2021-06-25T07:51:16.000Z</time>
      </trkpt>
      <trkpt lat="43.50307" lon="6.40031">
        <ele>156.8</ele>
        <time>2021-06-25T07:51:26.000Z</time>
      </trkpt>
      <trkpt lat="43.50309" lon="6.40044">
        <ele>156.2</ele>
        <time>2021-06-25T07:51:36.000Z</time>
      </trkpt>
      <trkpt lat="43.50302" lon="6.40054">
        <ele>155.7</ele>
        <time>2021-06-25T07:51:45.000Z</time>
      </trkpt>
      <trkpt lat="43.50297" lon="6.40065">
        <ele>155.2</ele>
        <time>2021-06-25T07:51:56.000Z</time>
      </trkpt>
      <trkpt lat="43.50289" lon="6.40072">
        <ele>155.7</ele>
        <time>2021-06-25T07:52:12.000Z</time>
      </trkpt>
      <trkpt lat="43.50289" lon="6.40085">
        <ele>155.8</ele>
        <time>2021-06-25T07:52:22.000Z</time>
      </trkpt>
      <trkpt lat="43.50282" lon="6.40095">
        <ele>155.9</ele>
        <time>2021-06-25T07:52:33.000Z</time>
      </trkpt>
      <trkpt lat="43.50273" lon="6.40101">
        <ele>155.4</ele>
        <time>2021-06-25T07:54:23.000Z</time>
      </trkpt>
      <trkpt lat="43.50281" lon="6.40093">
        <ele>155.4</ele>
        <time>2021-06-25T07:54:36.000Z</time>
      </trkpt>
      <trkpt lat="43.50277" lon="6.40105">
        <ele>154.9</ele>
        <time>2021-06-25T07:55:08.000Z</time>
      </trkpt>
      <trkpt lat="43.50274" lon="6.40118">
        <ele>153.7</ele>
        <time>2021-06-25T07:55:17.000Z</time>
      </trkpt>
      <trkpt lat="43.50279" lon="6.4013">
        <ele>153.3</ele>
        <time>2021-06-25T07:55:28.000Z</time>
      </trkpt>
      <trkpt lat="43.50289" lon="6.40131">
        <ele>153.3</ele>
        <time>2021-06-25T07:55:54.000Z</time>
      </trkpt>
      <trkpt lat="43.50294" lon="6.40142">
        <ele>153.5</ele>
        <time>2021-06-25T07:56:16.000Z</time>
      </trkpt>
      <trkpt lat="43.50304" lon="6.40146">
        <ele>154</ele>
        <time>2021-06-25T07:56:34.000Z</time>
      </trkpt>
      <trkpt lat="43.50313" lon="6.40147">
        <ele>149.6</ele>
        <time>2021-06-25T07:58:08.000Z</time>
      </trkpt>
      <trkpt lat="43.50319" lon="6.40156">
        <ele>150</ele>
        <time>2021-06-25T07:58:43.000Z</time>
      </trkpt>
      <trkpt lat="43.50329" lon="6.4016">
        <ele>149.6</ele>
        <time>2021-06-25T07:59:09.000Z</time>
      </trkpt>
      <trkpt lat="43.50336" lon="6.40168">
        <ele>149.8</ele>
        <time>2021-06-25T08:00:34.000Z</time>
      </trkpt>
      <trkpt lat="43.50344" lon="6.4016">
        <ele>150.5</ele>
        <time>2021-06-25T08:01:35.000Z</time>
      </trkpt>
      <trkpt lat="43.50347" lon="6.40148">
        <ele>152</ele>
        <time>2021-06-25T08:03:50.000Z</time>
      </trkpt>
      <trkpt lat="43.50356" lon="6.40143">
        <ele>152.7</ele>
        <time>2021-06-25T08:04:28.000Z</time>
      </trkpt>
      <trkpt lat="43.50362" lon="6.40133">
        <ele>153.1</ele>
        <time>2021-06-25T08:05:11.000Z</time>
      </trkpt>
      <trkpt lat="43.50357" lon="6.40123">
        <ele>153.2</ele>
        <time>2021-06-25T08:10:02.000Z</time>
      </trkpt>
      <trkpt lat="43.50348" lon="6.40117">
        <ele>152.9</ele>
        <time>2021-06-25T08:10:16.000Z</time>
      </trkpt>
      <trkpt lat="43.50342" lon="6.40108">
        <ele>152.4</ele>
        <time>2021-06-25T08:10:32.000Z</time>
      </trkpt>
      <trkpt lat="43.50335" lon="6.401">
        <ele>153.3</ele>
        <time>2021-06-25T08:10:46.000Z</time>
      </trkpt>
      <trkpt lat="43.50331" lon="6.40088">
        <ele>153</ele>
        <time>2021-06-25T08:11:02.000Z</time>
      </trkpt>
      <trkpt lat="43.50325" lon="6.40078">
        <ele>153.8</ele>
        <time>2021-06-25T08:11:21.000Z</time>
      </trkpt>
      <trkpt lat="43.50324" lon="6.40065">
        <ele>154</ele>
        <time>2021-06-25T08:11:58.000Z</time>
      </trkpt>
      <trkpt lat="43.50323" lon="6.40053">
        <ele>154.5</ele>
        <time>2021-06-25T08:12:20.000Z</time>
      </trkpt>
      <trkpt lat="43.50315" lon="6.40048">
        <ele>156.1</ele>
        <time>2021-06-25T08:12:41.000Z</time>
      </trkpt>
      <trkpt lat="43.50311" lon="6.40036">
        <ele>155.9</ele>
        <time>2021-06-25T08:13:10.000Z</time>
      </trkpt>
      <trkpt lat="43.50306" lon="6.40025">
        <ele>156.2</ele>
        <time>2021-06-25T08:13:21.000Z</time>
      </trkpt>
      <trkpt lat="43.50299" lon="6.40017">
        <ele>156.8</ele>
        <time>2021-06-25T08:13:32.000Z</time>
      </trkpt>
      <trkpt lat="43.50292" lon="6.40008">
        <ele>157.8</ele>
        <time>2021-06-25T08:13:45.000Z</time>
      </trkpt>
      <trkpt lat="43.50283" lon="6.40001">
        <ele>158.1</ele>
        <time>2021-06-25T08:13:55.000Z</time>
      </trkpt>
      <trkpt lat="43.50274" lon="6.39998">
        <ele>159</ele>
        <time>2021-06-25T08:14:06.000Z</time>
      </trkpt>
      <trkpt lat="43.50264" lon="6.39996">
        <ele>159.9</ele>
        <time>2021-06-25T08:14:15.000Z</time>
      </trkpt>
      <trkpt lat="43.50255" lon="6.39998">
        <ele>160.8</ele>
        <time>2021-06-25T08:14:24.000Z</time>
      </trkpt>
      <trkpt lat="43.50245" lon="6.40002">
        <ele>162.2</ele>
        <time>2021-06-25T08:14:37.000Z</time>
      </trkpt>
      <trkpt lat="43.50236" lon="6.40001">
        <ele>163</ele>
        <time>2021-06-25T08:14:46.000Z</time>
      </trkpt>
      <trkpt lat="43.50227" lon="6.4">
        <ele>163.1</ele>
        <time>2021-06-25T08:14:54.000Z</time>
      </trkpt>
      <trkpt lat="43.50218" lon="6.39998">
        <ele>163.4</ele>
        <time>2021-06-25T08:15:04.000Z</time>
      </trkpt>
      <trkpt lat="43.50209" lon="6.39994">
        <ele>162.9</ele>
        <time>2021-06-25T08:15:14.000Z</time>
      </trkpt>
      <trkpt lat="43.502" lon="6.39989">
        <ele>162.5</ele>
        <time>2021-06-25T08:15:23.000Z</time>
      </trkpt>
      <trkpt lat="43.50192" lon="6.39983">
        <ele>162.2</ele>
        <time>2021-06-25T08:15:31.000Z</time>
      </trkpt>
      <trkpt lat="43.50184" lon="6.39979">
        <ele>162.1</ele>
        <time>2021-06-25T08:15:39.000Z</time>
      </trkpt>
      <trkpt lat="43.50176" lon="6.3997">
        <ele>161.6</ele>
        <time>2021-06-25T08:15:49.000Z</time>
      </trkpt>
      <trkpt lat="43.50167" lon="6.39963">
        <ele>161.5</ele>
        <time>2021-06-25T08:15:56.000Z</time>
      </trkpt>
      <trkpt lat="43.50161" lon="6.39953">
        <ele>161.5</ele>
        <time>2021-06-25T08:16:04.000Z</time>
      </trkpt>
      <trkpt lat="43.50156" lon="6.39941">
        <ele>163</ele>
        <time>2021-06-25T08:16:16.000Z</time>
      </trkpt>
      <trkpt lat="43.50151" lon="6.39929">
        <ele>163.1</ele>
        <time>2021-06-25T08:16:25.000Z</time>
      </trkpt>
      <trkpt lat="43.50149" lon="6.39917">
        <ele>163.7</ele>
        <time>2021-06-25T08:16:34.000Z</time>
      </trkpt>
      <trkpt lat="43.50149" lon="6.39904">
        <ele>164.4</ele>
        <time>2021-06-25T08:16:44.000Z</time>
      </trkpt>
      <trkpt lat="43.50151" lon="6.39891">
        <ele>165.2</ele>
        <time>2021-06-25T08:16:55.000Z</time>
      </trkpt>
      <trkpt lat="43.50151" lon="6.39878">
        <ele>165.7</ele>
        <time>2021-06-25T08:17:05.000Z</time>
      </trkpt>
      <trkpt lat="43.50149" lon="6.39865">
        <ele>166.5</ele>
        <time>2021-06-25T08:17:16.000Z</time>
      </trkpt>
      <trkpt lat="43.5015" lon="6.39853">
        <ele>166.8</ele>
        <time>2021-06-25T08:17:24.000Z</time>
      </trkpt>
      <trkpt lat="43.50152" lon="6.3984">
        <ele>167.4</ele>
        <time>2021-06-25T08:17:36.000Z</time>
      </trkpt>
      <trkpt lat="43.50151" lon="6.39828">
        <ele>168.5</ele>
        <time>2021-06-25T08:17:45.000Z</time>
      </trkpt>
      <trkpt lat="43.50151" lon="6.39814">
        <ele>169.8</ele>
        <time>2021-06-25T08:17:57.000Z</time>
      </trkpt>
      <trkpt lat="43.50152" lon="6.39801">
        <ele>170.2</ele>
        <time>2021-06-25T08:18:06.000Z</time>
      </trkpt>
      <trkpt lat="43.50154" lon="6.39788">
        <ele>171</ele>
        <time>2021-06-25T08:18:14.000Z</time>
      </trkpt>
      <trkpt lat="43.50153" lon="6.39775">
        <ele>171.9</ele>
        <time>2021-06-25T08:18:23.000Z</time>
      </trkpt>
      <trkpt lat="43.50154" lon="6.39763">
        <ele>172.9</ele>
        <time>2021-06-25T08:18:34.000Z</time>
      </trkpt>
      <trkpt lat="43.50154" lon="6.39749">
        <ele>173.6</ele>
        <time>2021-06-25T08:18:44.000Z</time>
      </trkpt>
      <trkpt lat="43.50152" lon="6.39736">
        <ele>174.5</ele>
        <time>2021-06-25T08:18:54.000Z</time>
      </trkpt>
      <trkpt lat="43.50155" lon="6.39724">
        <ele>175.1</ele>
        <time>2021-06-25T08:19:02.000Z</time>
      </trkpt>
      <trkpt lat="43.50155" lon="6.39709">
        <ele>175.5</ele>
        <time>2021-06-25T08:19:12.000Z</time>
      </trkpt>
      <trkpt lat="43.50157" lon="6.39696">
        <ele>175.7</ele>
        <time>2021-06-25T08:19:23.000Z</time>
      </trkpt>
      <trkpt lat="43.50159" lon="6.39684">
        <ele>176.3</ele>
        <time>2021-06-25T08:19:33.000Z</time>
      </trkpt>
      <trkpt lat="43.5016" lon="6.3967">
        <ele>176.9</ele>
        <time>2021-06-25T08:19:43.000Z</time>
      </trkpt>
      <trkpt lat="43.5016" lon="6.39656">
        <ele>178.1</ele>
        <time>2021-06-25T08:19:52.000Z</time>
      </trkpt>
      <trkpt lat="43.50159" lon="6.39644">
        <ele>178.7</ele>
        <time>2021-06-25T08:20:03.000Z</time>
      </trkpt>
      <trkpt lat="43.50156" lon="6.39631">
        <ele>180.1</ele>
        <time>2021-06-25T08:20:15.000Z</time>
      </trkpt>
      <trkpt lat="43.50154" lon="6.39619">
        <ele>181.2</ele>
        <time>2021-06-25T08:20:26.000Z</time>
      </trkpt>
      <trkpt lat="43.50152" lon="6.39606">
        <ele>181.4</ele>
        <time>2021-06-25T08:20:33.000Z</time>
      </trkpt>
      <trkpt lat="43.50152" lon="6.39593">
        <ele>182.3</ele>
        <time>2021-06-25T08:20:41.000Z</time>
      </trkpt>
      <trkpt lat="43.50151" lon="6.39581">
        <ele>183</ele>
        <time>2021-06-25T08:20:50.000Z</time>
      </trkpt>
      <trkpt lat="43.5015" lon="6.39568">
        <ele>183.1</ele>
        <time>2021-06-25T08:21:09.000Z</time>
      </trkpt>
      <trkpt lat="43.5015" lon="6.39556">
        <ele>184.3</ele>
        <time>2021-06-25T08:23:05.000Z</time>
      </trkpt>
      <trkpt lat="43.50151" lon="6.39543">
        <ele>184.5</ele>
        <time>2021-06-25T08:23:18.000Z</time>
      </trkpt>
      <trkpt lat="43.50152" lon="6.3953">
        <ele>184.5</ele>
        <time>2021-06-25T08:23:28.000Z</time>
      </trkpt>
      <trkpt lat="43.50151" lon="6.39518">
        <ele>184.9</ele>
        <time>2021-06-25T08:23:37.000Z</time>
      </trkpt>
      <trkpt lat="43.50151" lon="6.39504">
        <ele>185.6</ele>
        <time>2021-06-25T08:23:47.000Z</time>
      </trkpt>
      <trkpt lat="43.50149" lon="6.39492">
        <ele>186.2</ele>
        <time>2021-06-25T08:23:57.000Z</time>
      </trkpt>
      <trkpt lat="43.50148" lon="6.39479">
        <ele>186.8</ele>
        <time>2021-06-25T08:24:07.000Z</time>
      </trkpt>
      <trkpt lat="43.50145" lon="6.39465">
        <ele>187.6</ele>
        <time>2021-06-25T08:24:18.000Z</time>
      </trkpt>
      <trkpt lat="43.50142" lon="6.39453">
        <ele>188.2</ele>
        <time>2021-06-25T08:24:28.000Z</time>
      </trkpt>
      <trkpt lat="43.50139" lon="6.39441">
        <ele>189</ele>
        <time>2021-06-25T08:24:38.000Z</time>
      </trkpt>
      <trkpt lat="43.50135" lon="6.39429">
        <ele>190.3</ele>
        <time>2021-06-25T08:24:49.000Z</time>
      </trkpt>
      <trkpt lat="43.50131" lon="6.39418">
        <ele>191.4</ele>
        <time>2021-06-25T08:24:58.000Z</time>
      </trkpt>
      <trkpt lat="43.50127" lon="6.39405">
        <ele>191.9</ele>
        <time>2021-06-25T08:25:08.000Z</time>
      </trkpt>
      <trkpt lat="43.50123" lon="6.39394">
        <ele>192.9</ele>
        <time>2021-06-25T08:25:18.000Z</time>
      </trkpt>
      <trkpt lat="43.50121" lon="6.39381">
        <ele>194</ele>
        <time>2021-06-25T08:25:31.000Z</time>
      </trkpt>
      <trkpt lat="43.50122" lon="6.39368">
        <ele>194.6</ele>
        <time>2021-06-25T08:25:41.000Z</time>
      </trkpt>
      <trkpt lat="43.50124" lon="6.39354">
        <ele>195.5</ele>
        <time>2021-06-25T08:25:52.000Z</time>
      </trkpt>
      <trkpt lat="43.50127" lon="6.39341">
        <ele>196.4</ele>
        <time>2021-06-25T08:26:03.000Z</time>
      </trkpt>
      <trkpt lat="43.50132" lon="6.39329">
        <ele>196.5</ele>
        <time>2021-06-25T08:26:13.000Z</time>
      </trkpt>
      <trkpt lat="43.50137" lon="6.39319">
        <ele>196</ele>
        <time>2021-06-25T08:26:23.000Z</time>
      </trkpt>
      <trkpt lat="43.50142" lon="6.39307">
        <ele>195.4</ele>
        <time>2021-06-25T08:26:32.000Z</time>
      </trkpt>
      <trkpt lat="43.50147" lon="6.39297">
        <ele>194.9</ele>
        <time>2021-06-25T08:26:41.000Z</time>
      </trkpt>
      <trkpt lat="43.50152" lon="6.39286">
        <ele>194.2</ele>
        <time>2021-06-25T08:26:50.000Z</time>
      </trkpt>
      <trkpt lat="43.50155" lon="6.39273">
        <ele>194.3</ele>
        <time>2021-06-25T08:26:59.000Z</time>
      </trkpt>
      <trkpt lat="43.50159" lon="6.39262">
        <ele>194</ele>
        <time>2021-06-25T08:27:07.000Z</time>
      </trkpt>
      <trkpt lat="43.50162" lon="6.39249">
        <ele>193.7</ele>
        <time>2021-06-25T08:27:17.000Z</time>
      </trkpt>
      <trkpt lat="43.50162" lon="6.39236">
        <ele>193.8</ele>
        <time>2021-06-25T08:27:25.000Z</time>
      </trkpt>
      <trkpt lat="43.50164" lon="6.39223">
        <ele>193.8</ele>
        <time>2021-06-25T08:27:35.000Z</time>
      </trkpt>
      <trkpt lat="43.50166" lon="6.39209">
        <ele>194.3</ele>
        <time>2021-06-25T08:27:44.000Z</time>
      </trkpt>
      <trkpt lat="43.50169" lon="6.39197">
        <ele>194.9</ele>
        <time>2021-06-25T08:27:55.000Z</time>
      </trkpt>
      <trkpt lat="43.5017" lon="6.39184">
        <ele>195.5</ele>
        <time>2021-06-25T08:28:05.000Z</time>
      </trkpt>
      <trkpt lat="43.50172" lon="6.39171">
        <ele>196.1</ele>
        <time>2021-06-25T08:28:17.000Z</time>
      </trkpt>
      <trkpt lat="43.50174" lon="6.39159">
        <ele>196.5</ele>
        <time>2021-06-25T08:28:25.000Z</time>
      </trkpt>
      <trkpt lat="43.50175" lon="6.39146">
        <ele>197.3</ele>
        <time>2021-06-25T08:28:36.000Z</time>
      </trkpt>
      <trkpt lat="43.50177" lon="6.39132">
        <ele>197.8</ele>
        <time>2021-06-25T08:28:46.000Z</time>
      </trkpt>
      <trkpt lat="43.50177" lon="6.39119">
        <ele>197.3</ele>
        <time>2021-06-25T08:28:54.000Z</time>
      </trkpt>
      <trkpt lat="43.50178" lon="6.39106">
        <ele>196.3</ele>
        <time>2021-06-25T08:29:02.000Z</time>
      </trkpt>
      <trkpt lat="43.50181" lon="6.39093">
        <ele>195.1</ele>
        <time>2021-06-25T08:29:13.000Z</time>
      </trkpt>
      <trkpt lat="43.50184" lon="6.3908">
        <ele>194.8</ele>
        <time>2021-06-25T08:29:23.000Z</time>
      </trkpt>
      <trkpt lat="43.50186" lon="6.39066">
        <ele>193.9</ele>
        <time>2021-06-25T08:29:33.000Z</time>
      </trkpt>
      <trkpt lat="43.50187" lon="6.39053">
        <ele>192.7</ele>
        <time>2021-06-25T08:29:41.000Z</time>
      </trkpt>
      <trkpt lat="43.5019" lon="6.39041">
        <ele>192.5</ele>
        <time>2021-06-25T08:29:49.000Z</time>
      </trkpt>
      <trkpt lat="43.50191" lon="6.39027">
        <ele>192.2</ele>
        <time>2021-06-25T08:29:57.000Z</time>
      </trkpt>
      <trkpt lat="43.50192" lon="6.39013">
        <ele>191.9</ele>
        <time>2021-06-25T08:30:06.000Z</time>
      </trkpt>
      <trkpt lat="43.50195" lon="6.39">
        <ele>191.8</ele>
        <time>2021-06-25T08:30:15.000Z</time>
      </trkpt>
      <trkpt lat="43.50197" lon="6.38987">
        <ele>191.4</ele>
        <time>2021-06-25T08:30:23.000Z</time>
      </trkpt>
      <trkpt lat="43.50199" lon="6.38975">
        <ele>190.9</ele>
        <time>2021-06-25T08:30:31.000Z</time>
      </trkpt>
      <trkpt lat="43.50202" lon="6.38961">
        <ele>191.3</ele>
        <time>2021-06-25T08:30:40.000Z</time>
      </trkpt>
      <trkpt lat="43.50203" lon="6.38947">
        <ele>191.6</ele>
        <time>2021-06-25T08:30:48.000Z</time>
      </trkpt>
      <trkpt lat="43.50204" lon="6.38935">
        <ele>191.6</ele>
        <time>2021-06-25T08:30:56.000Z</time>
      </trkpt>
      <trkpt lat="43.50208" lon="6.38922">
        <ele>191.6</ele>
        <time>2021-06-25T08:31:04.000Z</time>
      </trkpt>
      <trkpt lat="43.5021" lon="6.38909">
        <ele>191.7</ele>
        <time>2021-06-25T08:31:13.000Z</time>
      </trkpt>
      <trkpt lat="43.50212" lon="6.38897">
        <ele>192.1</ele>
        <time>2021-06-25T08:31:21.000Z</time>
      </trkpt>
      <trkpt lat="43.50215" lon="6.38884">
        <ele>192.2</ele>
        <time>2021-06-25T08:31:30.000Z</time>
      </trkpt>
      <trkpt lat="43.50217" lon="6.38872">
        <ele>192.1</ele>
        <time>2021-06-25T08:31:38.000Z</time>
      </trkpt>
      <trkpt lat="43.5022" lon="6.3886">
        <ele>192.6</ele>
        <time>2021-06-25T08:31:47.000Z</time>
      </trkpt>
      <trkpt lat="43.50221" lon="6.38846">
        <ele>193.3</ele>
        <time>2021-06-25T08:31:56.000Z</time>
      </trkpt>
      <trkpt lat="43.50222" lon="6.38833">
        <ele>193.7</ele>
        <time>2021-06-25T08:32:06.000Z</time>
      </trkpt>
      <trkpt lat="43.50214" lon="6.38826">
        <ele>194.6</ele>
        <time>2021-06-25T08:32:34.000Z</time>
      </trkpt>
      <trkpt lat="43.50205" lon="6.38822">
        <ele>194.7</ele>
        <time>2021-06-25T08:32:41.000Z</time>
      </trkpt>
      <trkpt lat="43.50196" lon="6.38815">
        <ele>194.4</ele>
        <time>2021-06-25T08:32:51.000Z</time>
      </trkpt>
      <trkpt lat="43.50188" lon="6.38811">
        <ele>194.3</ele>
        <time>2021-06-25T08:32:59.000Z</time>
      </trkpt>
      <trkpt lat="43.50178" lon="6.38807">
        <ele>193.6</ele>
        <time>2021-06-25T08:33:08.000Z</time>
      </trkpt>
      <trkpt lat="43.5017" lon="6.38801">
        <ele>193.3</ele>
        <time>2021-06-25T08:33:16.000Z</time>
      </trkpt>
      <trkpt lat="43.50162" lon="6.38796">
        <ele>192</ele>
        <time>2021-06-25T08:33:25.000Z</time>
      </trkpt>
      <trkpt lat="43.50153" lon="6.38791">
        <ele>192.7</ele>
        <time>2021-06-25T08:33:33.000Z</time>
      </trkpt>
      <trkpt lat="43.50147" lon="6.38782">
        <ele>192.6</ele>
        <time>2021-06-25T08:33:42.000Z</time>
      </trkpt>
      <trkpt lat="43.50139" lon="6.38774">
        <ele>192</ele>
        <time>2021-06-25T08:33:52.000Z</time>
      </trkpt>
      <trkpt lat="43.50131" lon="6.38769">
        <ele>193.4</ele>
        <time>2021-06-25T08:34:21.000Z</time>
      </trkpt>
      <trkpt lat="43.50132" lon="6.38756">
        <ele>193.5</ele>
        <time>2021-06-25T08:34:33.000Z</time>
      </trkpt>
      <trkpt lat="43.50133" lon="6.38743">
        <ele>193.5</ele>
        <time>2021-06-25T08:34:49.000Z</time>
      </trkpt>
      <trkpt lat="43.50135" lon="6.3873">
        <ele>193.9</ele>
        <time>2021-06-25T08:35:01.000Z</time>
      </trkpt>
      <trkpt lat="43.50137" lon="6.38718">
        <ele>194.3</ele>
        <time>2021-06-25T08:35:14.000Z</time>
      </trkpt>
      <trkpt lat="43.50138" lon="6.38705">
        <ele>194.6</ele>
        <time>2021-06-25T08:35:30.000Z</time>
      </trkpt>
      <trkpt lat="43.50139" lon="6.38692">
        <ele>195</ele>
        <time>2021-06-25T08:35:46.000Z</time>
      </trkpt>
      <trkpt lat="43.50142" lon="6.38679">
        <ele>195.2</ele>
        <time>2021-06-25T08:35:57.000Z</time>
      </trkpt>
      <trkpt lat="43.50145" lon="6.38667">
        <ele>196.2</ele>
        <time>2021-06-25T08:36:06.000Z</time>
      </trkpt>
      <trkpt lat="43.5015" lon="6.38655">
        <ele>196.9</ele>
        <time>2021-06-25T08:36:16.000Z</time>
      </trkpt>
      <trkpt lat="43.50153" lon="6.38642">
        <ele>197.6</ele>
        <time>2021-06-25T08:36:26.000Z</time>
      </trkpt>
      <trkpt lat="43.50158" lon="6.38631">
        <ele>198.2</ele>
        <time>2021-06-25T08:36:35.000Z</time>
      </trkpt>
      <trkpt lat="43.50162" lon="6.38618">
        <ele>199.1</ele>
        <time>2021-06-25T08:36:45.000Z</time>
      </trkpt>
      <trkpt lat="43.50165" lon="6.38605">
        <ele>199.4</ele>
        <time>2021-06-25T08:36:54.000Z</time>
      </trkpt>
      <trkpt lat="43.50166" lon="6.38593">
        <ele>199.7</ele>
        <time>2021-06-25T08:37:05.000Z</time>
      </trkpt>
      <trkpt lat="43.50169" lon="6.38581">
        <ele>200.1</ele>
        <time>2021-06-25T08:37:14.000Z</time>
      </trkpt>
      <trkpt lat="43.50169" lon="6.38567">
        <ele>201.1</ele>
        <time>2021-06-25T08:37:26.000Z</time>
      </trkpt>
      <trkpt lat="43.5017" lon="6.38554">
        <ele>201.5</ele>
        <time>2021-06-25T08:37:34.000Z</time>
      </trkpt>
      <trkpt lat="43.50171" lon="6.38541">
        <ele>202</ele>
        <time>2021-06-25T08:37:46.000Z</time>
      </trkpt>
      <trkpt lat="43.50171" lon="6.38529">
        <ele>202.6</ele>
        <time>2021-06-25T08:37:56.000Z</time>
      </trkpt>
      <trkpt lat="43.50171" lon="6.38516">
        <ele>203.1</ele>
        <time>2021-06-25T08:38:06.000Z</time>
      </trkpt>
      <trkpt lat="43.50174" lon="6.38503">
        <ele>203.5</ele>
        <time>2021-06-25T08:38:17.000Z</time>
      </trkpt>
      <trkpt lat="43.50176" lon="6.38491">
        <ele>204.3</ele>
        <time>2021-06-25T08:38:28.000Z</time>
      </trkpt>
      <trkpt lat="43.50177" lon="6.38476">
        <ele>205</ele>
        <time>2021-06-25T08:38:36.000Z</time>
      </trkpt>
      <trkpt lat="43.50176" lon="6.38463">
        <ele>204.3</ele>
        <time>2021-06-25T08:38:52.000Z</time>
      </trkpt>
      <trkpt lat="43.50179" lon="6.38451">
        <ele>204.7</ele>
        <time>2021-06-25T08:39:06.000Z</time>
      </trkpt>
      <trkpt lat="43.50179" lon="6.38438">
        <ele>204.7</ele>
        <time>2021-06-25T08:39:19.000Z</time>
      </trkpt>
      <trkpt lat="43.50178" lon="6.38423">
        <ele>205</ele>
        <time>2021-06-25T08:39:35.000Z</time>
      </trkpt>
      <trkpt lat="43.50177" lon="6.3841">
        <ele>206</ele>
        <time>2021-06-25T08:39:57.000Z</time>
      </trkpt>
      <trkpt lat="43.50178" lon="6.38398">
        <ele>206.5</ele>
        <time>2021-06-25T08:40:17.000Z</time>
      </trkpt>
      <trkpt lat="43.50178" lon="6.38384">
        <ele>206.5</ele>
        <time>2021-06-25T08:40:31.000Z</time>
      </trkpt>
      <trkpt lat="43.50176" lon="6.3837">
        <ele>206.8</ele>
        <time>2021-06-25T08:40:45.000Z</time>
      </trkpt>
      <trkpt lat="43.50179" lon="6.38358">
        <ele>207.4</ele>
        <time>2021-06-25T08:40:55.000Z</time>
      </trkpt>
      <trkpt lat="43.50179" lon="6.38346">
        <ele>207.3</ele>
        <time>2021-06-25T08:41:11.000Z</time>
      </trkpt>
      <trkpt lat="43.50178" lon="6.38333">
        <ele>207.5</ele>
        <time>2021-06-25T08:41:31.000Z</time>
      </trkpt>
      <trkpt lat="43.5018" lon="6.3832">
        <ele>207.9</ele>
        <time>2021-06-25T08:41:37.000Z</time>
      </trkpt>
      <trkpt lat="43.5018" lon="6.38307">
        <ele>209</ele>
        <time>2021-06-25T08:41:47.000Z</time>
      </trkpt>
      <trkpt lat="43.50176" lon="6.38295">
        <ele>209.9</ele>
        <time>2021-06-25T08:41:58.000Z</time>
      </trkpt>
      <trkpt lat="43.50172" lon="6.38283">
        <ele>211</ele>
        <time>2021-06-25T08:42:35.000Z</time>
      </trkpt>
      <trkpt lat="43.50173" lon="6.38271">
        <ele>211.6</ele>
        <time>2021-06-25T08:42:55.000Z</time>
      </trkpt>
      <trkpt lat="43.50177" lon="6.38258">
        <ele>213.4</ele>
        <time>2021-06-25T08:43:11.000Z</time>
      </trkpt>
      <trkpt lat="43.50177" lon="6.38245">
        <ele>213.7</ele>
        <time>2021-06-25T08:43:19.000Z</time>
      </trkpt>
      <trkpt lat="43.50176" lon="6.38232">
        <ele>213.9</ele>
        <time>2021-06-25T08:43:28.000Z</time>
      </trkpt>
      <trkpt lat="43.50177" lon="6.38219">
        <ele>214.3</ele>
        <time>2021-06-25T08:43:40.000Z</time>
      </trkpt>
      <trkpt lat="43.50176" lon="6.38205">
        <ele>215.5</ele>
        <time>2021-06-25T08:43:55.000Z</time>
      </trkpt>
      <trkpt lat="43.50178" lon="6.38193">
        <ele>216.1</ele>
        <time>2021-06-25T08:44:10.000Z</time>
      </trkpt>
      <trkpt lat="43.50181" lon="6.38181">
        <ele>216.9</ele>
        <time>2021-06-25T08:44:21.000Z</time>
      </trkpt>
      <trkpt lat="43.50182" lon="6.38168">
        <ele>217.7</ele>
        <time>2021-06-25T08:44:34.000Z</time>
      </trkpt>
      <trkpt lat="43.50184" lon="6.38155">
        <ele>218.4</ele>
        <time>2021-06-25T08:44:44.000Z</time>
      </trkpt>
      <trkpt lat="43.50182" lon="6.38143">
        <ele>218.8</ele>
        <time>2021-06-25T08:44:55.000Z</time>
      </trkpt>
      <trkpt lat="43.5018" lon="6.3813">
        <ele>219.6</ele>
        <time>2021-06-25T08:45:12.000Z</time>
      </trkpt>
      <trkpt lat="43.50181" lon="6.38117">
        <ele>220.6</ele>
        <time>2021-06-25T08:45:28.000Z</time>
      </trkpt>
      <trkpt lat="43.50187" lon="6.38107">
        <ele>222.6</ele>
        <time>2021-06-25T08:45:49.000Z</time>
      </trkpt>
      <trkpt lat="43.50194" lon="6.38099">
        <ele>224.2</ele>
        <time>2021-06-25T08:46:06.000Z</time>
      </trkpt>
      <trkpt lat="43.50197" lon="6.38088">
        <ele>224.6</ele>
        <time>2021-06-25T08:46:57.000Z</time>
      </trkpt>
      <trkpt lat="43.50202" lon="6.38076">
        <ele>226.1</ele>
        <time>2021-06-25T08:47:17.000Z</time>
      </trkpt>
      <trkpt lat="43.50209" lon="6.38069">
        <ele>227.7</ele>
        <time>2021-06-25T08:47:35.000Z</time>
      </trkpt>
      <trkpt lat="43.50216" lon="6.38061">
        <ele>230</ele>
        <time>2021-06-25T08:47:52.000Z</time>
      </trkpt>
      <trkpt lat="43.50221" lon="6.38051">
        <ele>231.9</ele>
        <time>2021-06-25T08:48:08.000Z</time>
      </trkpt>
      <trkpt lat="43.50226" lon="6.3804">
        <ele>233.3</ele>
        <time>2021-06-25T08:48:22.000Z</time>
      </trkpt>
      <trkpt lat="43.5023" lon="6.38029">
        <ele>234.8</ele>
        <time>2021-06-25T08:48:34.000Z</time>
      </trkpt>
      <trkpt lat="43.50236" lon="6.38018">
        <ele>236.1</ele>
        <time>2021-06-25T08:48:48.000Z</time>
      </trkpt>
      <trkpt lat="43.5024" lon="6.38006">
        <ele>237</ele>
        <time>2021-06-25T08:49:02.000Z</time>
      </trkpt>
      <trkpt lat="43.50245" lon="6.37995">
        <ele>238.7</ele>
        <time>2021-06-25T08:49:15.000Z</time>
      </trkpt>
      <trkpt lat="43.50245" lon="6.37982">
        <ele>241.4</ele>
        <time>2021-06-25T08:49:42.000Z</time>
      </trkpt>
      <trkpt lat="43.50249" lon="6.37971">
        <ele>243.1</ele>
        <time>2021-06-25T08:50:04.000Z</time>
      </trkpt>
      <trkpt lat="43.50251" lon="6.37959">
        <ele>244.8</ele>
        <time>2021-06-25T08:50:17.000Z</time>
      </trkpt>
      <trkpt lat="43.50253" lon="6.37946">
        <ele>245.7</ele>
        <time>2021-06-25T08:50:36.000Z</time>
      </trkpt>
      <trkpt lat="43.50247" lon="6.37937">
        <ele>246.4</ele>
        <time>2021-06-25T08:53:06.000Z</time>
      </trkpt>
      <trkpt lat="43.50238" lon="6.37933">
        <ele>247.7</ele>
        <time>2021-06-25T08:53:23.000Z</time>
      </trkpt>
      <trkpt lat="43.50229" lon="6.37925">
        <ele>249.4</ele>
        <time>2021-06-25T08:53:39.000Z</time>
      </trkpt>
      <trkpt lat="43.50225" lon="6.37914">
        <ele>250.7</ele>
        <time>2021-06-25T08:53:52.000Z</time>
      </trkpt>
      <trkpt lat="43.50224" lon="6.37901">
        <ele>252.4</ele>
        <time>2021-06-25T08:54:08.000Z</time>
      </trkpt>
      <trkpt lat="43.5022" lon="6.37889">
        <ele>253.3</ele>
        <time>2021-06-25T08:54:20.000Z</time>
      </trkpt>
      <trkpt lat="43.50217" lon="6.37878">
        <ele>253.9</ele>
        <time>2021-06-25T08:54:37.000Z</time>
      </trkpt>
      <trkpt lat="43.50217" lon="6.37864">
        <ele>254.1</ele>
        <time>2021-06-25T08:54:44.000Z</time>
      </trkpt>
      <trkpt lat="43.50216" lon="6.37851">
        <ele>254.8</ele>
        <time>2021-06-25T08:54:54.000Z</time>
      </trkpt>
      <trkpt lat="43.50212" lon="6.37839">
        <ele>254.9</ele>
        <time>2021-06-25T08:55:07.000Z</time>
      </trkpt>
      <trkpt lat="43.50213" lon="6.37827">
        <ele>255.2</ele>
        <time>2021-06-25T08:55:14.000Z</time>
      </trkpt>
      <trkpt lat="43.50214" lon="6.37813">
        <ele>255.3</ele>
        <time>2021-06-25T08:55:24.000Z</time>
      </trkpt>
      <trkpt lat="43.50212" lon="6.37801">
        <ele>256</ele>
        <time>2021-06-25T08:55:34.000Z</time>
      </trkpt>
      <trkpt lat="43.5021" lon="6.37787">
        <ele>256.8</ele>
        <time>2021-06-25T08:55:40.000Z</time>
      </trkpt>
      <trkpt lat="43.50207" lon="6.37775">
        <ele>256.9</ele>
        <time>2021-06-25T08:55:49.000Z</time>
      </trkpt>
      <trkpt lat="43.50208" lon="6.37762">
        <ele>257</ele>
        <time>2021-06-25T08:55:59.000Z</time>
      </trkpt>
      <trkpt lat="43.50203" lon="6.37752">
        <ele>257.1</ele>
        <time>2021-06-25T08:56:05.000Z</time>
      </trkpt>
      <trkpt lat="43.502" lon="6.37739">
        <ele>256.8</ele>
        <time>2021-06-25T08:56:16.000Z</time>
      </trkpt>
      <trkpt lat="43.50194" lon="6.37729">
        <ele>257.3</ele>
        <time>2021-06-25T08:56:29.000Z</time>
      </trkpt>
      <trkpt lat="43.50192" lon="6.37716">
        <ele>258.1</ele>
        <time>2021-06-25T08:56:42.000Z</time>
      </trkpt>
      <trkpt lat="43.50194" lon="6.37704">
        <ele>258.6</ele>
        <time>2021-06-25T08:56:49.000Z</time>
      </trkpt>
      <trkpt lat="43.5019" lon="6.37691">
        <ele>260.4</ele>
        <time>2021-06-25T08:57:03.000Z</time>
      </trkpt>
      <trkpt lat="43.5019" lon="6.37679">
        <ele>261.4</ele>
        <time>2021-06-25T08:57:12.000Z</time>
      </trkpt>
      <trkpt lat="43.50187" lon="6.37667">
        <ele>262.6</ele>
        <time>2021-06-25T08:57:24.000Z</time>
      </trkpt>
      <trkpt lat="43.50184" lon="6.37653">
        <ele>263.5</ele>
        <time>2021-06-25T08:57:36.000Z</time>
      </trkpt>
      <trkpt lat="43.5018" lon="6.3764">
        <ele>264.2</ele>
        <time>2021-06-25T08:57:44.000Z</time>
      </trkpt>
      <trkpt lat="43.50174" lon="6.3763">
        <ele>264.1</ele>
        <time>2021-06-25T08:57:52.000Z</time>
      </trkpt>
      <trkpt lat="43.50166" lon="6.37623">
        <ele>263.9</ele>
        <time>2021-06-25T08:58:00.000Z</time>
      </trkpt>
      <trkpt lat="43.50159" lon="6.37615">
        <ele>263.9</ele>
        <time>2021-06-25T08:58:09.000Z</time>
      </trkpt>
      <trkpt lat="43.50154" lon="6.37604">
        <ele>264.2</ele>
        <time>2021-06-25T08:58:17.000Z</time>
      </trkpt>
      <trkpt lat="43.50149" lon="6.37594">
        <ele>264.9</ele>
        <time>2021-06-25T08:58:26.000Z</time>
      </trkpt>
      <trkpt lat="43.50142" lon="6.37585">
        <ele>265.8</ele>
        <time>2021-06-25T08:58:35.000Z</time>
      </trkpt>
      <trkpt lat="43.50139" lon="6.37573">
        <ele>266.9</ele>
        <time>2021-06-25T08:58:46.000Z</time>
      </trkpt>
      <trkpt lat="43.50133" lon="6.37563">
        <ele>266.9</ele>
        <time>2021-06-25T08:59:25.000Z</time>
      </trkpt>
      <trkpt lat="43.50127" lon="6.37552">
        <ele>268</ele>
        <time>2021-06-25T08:59:35.000Z</time>
      </trkpt>
      <trkpt lat="43.50119" lon="6.37545">
        <ele>268.4</ele>
        <time>2021-06-25T08:59:43.000Z</time>
      </trkpt>
      <trkpt lat="43.50116" lon="6.37534">
        <ele>269.3</ele>
        <time>2021-06-25T08:59:52.000Z</time>
      </trkpt>
      <trkpt lat="43.50112" lon="6.37522">
        <ele>270.1</ele>
        <time>2021-06-25T09:00:02.000Z</time>
      </trkpt>
      <trkpt lat="43.50107" lon="6.37511">
        <ele>270.9</ele>
        <time>2021-06-25T09:00:17.000Z</time>
      </trkpt>
      <trkpt lat="43.50104" lon="6.37498">
        <ele>272.7</ele>
        <time>2021-06-25T09:00:31.000Z</time>
      </trkpt>
      <trkpt lat="43.50102" lon="6.37485">
        <ele>274.6</ele>
        <time>2021-06-25T09:00:46.000Z</time>
      </trkpt>
      <trkpt lat="43.50096" lon="6.37473">
        <ele>276</ele>
        <time>2021-06-25T09:00:57.000Z</time>
      </trkpt>
      <trkpt lat="43.50093" lon="6.3746">
        <ele>277.3</ele>
        <time>2021-06-25T09:01:09.000Z</time>
      </trkpt>
      <trkpt lat="43.5009" lon="6.37448">
        <ele>278.5</ele>
        <time>2021-06-25T09:01:21.000Z</time>
      </trkpt>
      <trkpt lat="43.50092" lon="6.37436">
        <ele>279.8</ele>
        <time>2021-06-25T09:01:32.000Z</time>
      </trkpt>
      <trkpt lat="43.50091" lon="6.37423">
        <ele>281.3</ele>
        <time>2021-06-25T09:01:44.000Z</time>
      </trkpt>
      <trkpt lat="43.50094" lon="6.37408">
        <ele>282.1</ele>
        <time>2021-06-25T09:01:54.000Z</time>
      </trkpt>
      <trkpt lat="43.50091" lon="6.37395">
        <ele>282.6</ele>
        <time>2021-06-25T09:02:01.000Z</time>
      </trkpt>
      <trkpt lat="43.50085" lon="6.37387">
        <ele>283.1</ele>
        <time>2021-06-25T09:02:08.000Z</time>
      </trkpt>
      <trkpt lat="43.50084" lon="6.37386">
        <ele>283.1</ele>
        <time>2021-06-25T09:02:09.000Z</time>
      </trkpt>
    </trkseg>
  </trk>
</gpx>